Enter the Airport ICAO Code

Search by Airport or City

Current Weather

SKBQ | Ernesto Cortissoz International Airport

Barranquilla, Colombia

Last Update 53 Minutes Ago

Mostly Cloudy Sky

Temperature of 28 ºC

Light to Moderate Winds from East

Temperature

28 ºC

Dew Point Temperature

25 ºC

Relative Humidity

83.88 %

Wind Direction

East (110º, Without Significant Variations)

Wind Velocity

9 km/h (05 kt)

Gusts

None

Visibility

Greater than 10 Kilometers

Sea Level Pressure

1010 hPa (Hectopascals)

Layers of Clouds

30% to 60% of Sky Covered from 366 mts (1200 ft) Above Ground Level.

60% to 90% of Sky Covered from 6096 mts (20000 ft) Above Ground Level.

METAR SKBQ 211300Z 11005KT 9999 SCT012 BKN200 28/25 Q1010 NOSIG RMK A2984

Weather Forecast

SKBQ | Ernesto Cortissoz International Airport

Barranquilla, Colombia

Forecast valid for the next 22 Hours

From now on it is expected:

Partly Cloudy Sky

Light to Moderate Winds from East

In 4 hours it is expected the begining of 3 hours with intermittent periods of:

Rain

In 7 hours it is expected the begining of 2 hours with intermittent periods of:

Sky with Few Clouds

In 16 hours it is expected the begining of 3 hours with intermittent periods of:

Rain

Maximum Temperature

No Data

Minimum Temperature

No Data

TAF SKBQ 211030Z 2112/2212 09006KT 9999 SCT015 TEMPO 2118/2121 RA SCT015TCU TEMPO 2121/2123 FEW015CB TEMPO 2206/2209 RA BKN015 TX33/2118Z TN25/2209Z